createdAt,value
2022-10-29T00:01:26.163Z,12.35
2022-10-29T00:03:53.820Z,12.41
2022-10-29T00:06:21.465Z,12.38
2022-10-29T00:08:52.126Z,12.46
2022-10-29T00:11:21.617Z,12.45
2022-10-29T00:13:55.013Z,12.45
2022-10-29T00:16:24.335Z,12.42
2022-10-29T00:18:52.093Z,12.38
2022-10-29T00:21:21.880Z,12.32
2022-10-29T00:23:50.582Z,12.27
2022-10-29T00:26:22.223Z,12.30
2022-10-29T00:28:54.892Z,12.31
2022-10-29T00:31:24.530Z,12.28
2022-10-29T00:33:53.179Z,12.29
2022-10-29T00:36:23.195Z,12.40
2022-10-29T00:38:51.460Z,12.46
2022-10-29T00:41:22.621Z,12.48
2022-10-29T00:44:12.991Z,12.50
2022-10-29T00:46:42.541Z,12.45
2022-10-29T00:49:11.987Z,12.42
2022-10-29T00:51:40.092Z,12.35
2022-10-29T00:54:10.750Z,12.25
2022-10-29T00:56:43.870Z,12.10
2022-10-29T00:59:15.165Z,12.02
2022-10-29T01:01:44.627Z,11.87
2022-10-29T01:04:12.875Z,11.73
2022-10-29T01:06:43.829Z,11.55
2022-10-29T01:09:11.536Z,11.45
2022-10-29T01:11:49.614Z,11.29
2022-10-29T01:14:31.567Z,11.19
2022-10-29T01:17:08.850Z,11.07
2022-10-29T01:20:12.262Z,11.06
2022-10-29T01:22:48.819Z,10.91
2022-10-29T01:25:40.382Z,10.92
2022-10-29T01:28:25.448Z,10.82
2022-10-29T01:31:16.970Z,10.71
2022-10-29T01:33:55.302Z,10.70
2022-10-29T01:36:32.256Z,10.65
2022-10-29T01:39:06.121Z,10.54
2022-10-29T01:41:43.022Z,10.47
2022-10-29T01:44:20.183Z,10.37
2022-10-29T01:46:54.789Z,10.35
2022-10-29T01:49:27.148Z,10.35
2022-10-29T01:51:57.903Z,10.46
2022-10-29T01:54:25.641Z,10.50
2022-10-29T01:56:57.248Z,10.51
2022-10-29T01:59:36.026Z,10.40
2022-10-29T02:02:24.101Z,10.33
2022-10-29T02:05:08.074Z,10.40
2022-10-29T02:07:48.229Z,10.26
2022-10-29T02:10:26.573Z,10.17
2022-10-29T02:12:56.288Z,10.07
2022-10-29T02:15:33.730Z,10.05
2022-10-29T02:18:04.694Z,10.09
2022-10-29T02:20:32.505Z,10.13
2022-10-29T02:23:00.580Z,10.08
2022-10-29T02:25:28.672Z,10.07
2022-10-29T02:27:56.650Z,10.05
2022-10-29T02:30:24.617Z,10.04
2022-10-29T02:32:52.439Z,10.05
2022-10-29T02:35:22.833Z,10.03
2022-10-29T02:37:53.512Z,9.99
2022-10-29T02:40:21.341Z,9.97
2022-10-29T02:42:48.967Z,9.92
2022-10-29T02:45:16.721Z,9.91
2022-10-29T02:47:44.337Z,9.90
2022-10-29T02:50:11.986Z,9.86
2022-10-29T02:52:43.033Z,9.87
2022-10-29T02:55:10.779Z,9.83
2022-10-29T02:57:38.459Z,9.75
2022-10-29T03:00:06.934Z,9.73
2022-10-29T03:02:37.302Z,9.66
2022-10-29T03:05:05.450Z,9.63
2022-10-29T03:07:36.919Z,9.62
2022-10-29T03:10:07.624Z,9.56
2022-10-29T03:12:35.464Z,9.48
2022-10-29T03:15:03.167Z,9.52
2022-10-29T03:17:31.772Z,9.48
2022-10-29T03:19:59.365Z,9.47
2022-10-29T03:22:26.952Z,9.48
2022-10-29T03:24:54.567Z,9.45
2022-10-29T03:27:23.502Z,9.49
2022-10-29T03:29:52.226Z,9.51
2022-10-29T03:32:19.864Z,9.49
2022-10-29T03:34:47.479Z,9.53
2022-10-29T03:37:15.085Z,9.53
2022-10-29T03:39:42.740Z,9.51
2022-10-29T03:42:10.346Z,9.51
2022-10-29T03:44:39.817Z,9.47
2022-10-29T03:47:09.125Z,9.46
2022-10-29T03:49:39.735Z,9.39
2022-10-29T03:52:10.475Z,9.43
2022-10-29T03:54:38.092Z,9.42
2022-10-29T03:57:05.682Z,9.45
2022-10-29T03:59:38.198Z,9.44
2022-10-29T04:02:07.339Z,9.42
2022-10-29T04:04:35.043Z,9.44
2022-10-29T04:07:02.652Z,9.48
2022-10-29T04:09:33.558Z,9.57
2022-10-29T04:12:01.614Z,9.57
2022-10-29T04:14:29.373Z,9.64
2022-10-29T04:16:57.477Z,9.76
2022-10-29T04:19:26.536Z,9.80
2022-10-29T04:27:07.900Z,9.92
2022-10-29T04:28:17.806Z,9.97
2022-10-29T04:30:19.528Z,10.01
2022-10-29T04:32:47.214Z,10.03
2022-10-29T04:35:16.372Z,10.04
2022-10-29T04:37:44.053Z,10.11
2022-10-29T04:40:12.362Z,10.15
2022-10-29T04:42:41.005Z,10.20
2022-10-29T04:45:09.901Z,10.23
2022-10-29T04:47:37.540Z,10.29
2022-10-29T04:50:05.816Z,10.30
2022-10-29T04:52:34.823Z,10.32
2022-10-29T04:55:02.434Z,10.29
2022-10-29T04:57:30.066Z,10.31
2022-10-29T04:59:57.651Z,10.24
2022-10-29T05:02:25.359Z,10.21
2022-10-29T05:04:52.976Z,10.16
2022-10-29T05:07:20.573Z,10.13
2022-10-29T05:09:49.593Z,10.17
2022-10-29T05:12:17.200Z,10.16
2022-10-29T05:14:44.818Z,10.13
2022-10-29T05:17:12.424Z,10.10
2022-10-29T05:19:40.059Z,10.03
2022-10-29T05:22:07.653Z,9.95
2022-10-29T05:24:35.285Z,9.89
2022-10-29T05:27:06.630Z,9.88
2022-10-29T05:29:34.301Z,9.87
2022-10-29T05:32:01.932Z,9.87
2022-10-29T05:34:29.546Z,9.84
2022-10-29T05:36:57.149Z,9.82
2022-10-29T05:39:24.899Z,9.82
2022-10-29T05:41:52.518Z,9.88
2022-10-29T05:44:21.541Z,9.95
2022-10-29T05:46:49.794Z,10.05
2022-10-29T05:49:19.509Z,10.08
2022-10-29T05:51:47.132Z,10.10
2022-10-29T05:54:14.790Z,10.12
2022-10-29T05:56:42.409Z,10.11
2022-10-29T05:59:10.041Z,10.05
2022-10-29T06:01:39.165Z,10.04
2022-10-29T06:04:06.953Z,10.03
2022-10-29T06:06:36.441Z,10.03
2022-10-29T06:09:04.146Z,10.10
2022-10-29T06:11:31.819Z,10.17
2022-10-29T06:13:59.438Z,10.25
2022-10-29T06:16:27.079Z,10.25
2022-10-29T06:18:56.418Z,10.24
2022-10-29T06:21:24.059Z,10.31
2022-10-29T06:23:54.015Z,10.35
2022-10-29T06:26:22.461Z,10.41
2022-10-29T06:28:50.073Z,10.41
2022-10-29T06:31:17.691Z,10.43
2022-10-29T06:33:45.305Z,10.45
2022-10-29T06:36:14.285Z,10.53
2022-10-29T06:38:41.919Z,10.59
2022-10-29T06:41:09.599Z,10.58
2022-10-29T06:43:37.341Z,10.63
2022-10-29T06:46:05.292Z,10.67
2022-10-29T06:48:32.925Z,10.71
2022-10-29T06:51:00.945Z,10.82
2022-10-29T06:53:30.047Z,10.93
2022-10-29T06:55:59.511Z,11.05
2022-10-29T06:58:27.274Z,11.26
2022-10-29T07:00:54.936Z,11.41
2022-10-29T07:03:24.788Z,11.53
2022-10-29T07:05:56.959Z,11.77
2022-10-29T07:08:24.682Z,11.89
2022-10-29T07:10:54.425Z,12.01
2022-10-29T07:13:22.072Z,12.16
2022-10-29T07:15:49.710Z,12.35
2022-10-29T07:18:17.377Z,12.54
2022-10-29T07:20:46.264Z,12.79
2022-10-29T07:23:14.685Z,13.03
2022-10-29T07:25:42.957Z,13.40
2022-10-29T07:28:14.742Z,13.85
2022-10-29T07:30:42.438Z,14.32
2022-10-29T07:33:10.360Z,14.72
2022-10-29T07:35:38.485Z,15.05
2022-10-29T07:38:10.748Z,15.39
2022-10-29T07:40:39.572Z,15.79
2022-10-29T07:43:07.317Z,16.09
2022-10-29T07:45:36.276Z,16.37
2022-10-29T07:48:08.412Z,16.65
2022-10-29T07:50:39.532Z,16.98
2022-10-29T07:53:09.021Z,17.21
2022-10-29T07:55:37.135Z,17.43
2022-10-29T07:58:06.527Z,17.60
2022-10-29T08:00:38.095Z,17.74
2022-10-29T08:03:06.591Z,17.84
2022-10-29T08:05:34.227Z,17.92
2022-10-29T08:08:01.902Z,17.95
2022-10-29T08:10:30.940Z,17.96
2022-10-29T08:13:00.925Z,17.95
2022-10-29T08:15:30.260Z,17.87
2022-10-29T08:17:59.609Z,17.80
2022-10-29T08:20:28.922Z,17.77
2022-10-29T08:22:56.807Z,17.79
2022-10-29T08:25:26.056Z,17.84
2022-10-29T08:28:01.240Z,17.83
2022-10-29T08:30:29.035Z,17.90
2022-10-29T08:32:57.410Z,17.91
2022-10-29T08:35:26.728Z,18.02
2022-10-29T08:37:54.527Z,18.14
2022-10-29T08:40:30.117Z,18.36
2022-10-29T08:43:14.885Z,18.52
2022-10-29T08:45:46.822Z,18.68
2022-10-29T08:48:27.189Z,18.84
2022-10-29T08:51:02.270Z,19.06
2022-10-29T08:53:37.715Z,19.25
2022-10-29T08:56:11.112Z,19.40
2022-10-29T08:58:44.680Z,19.44
2022-10-29T09:01:13.582Z,19.47
2022-10-29T09:03:43.635Z,19.52
2022-10-29T09:06:17.071Z,19.53
2022-10-29T09:09:01.109Z,19.58
2022-10-29T09:11:49.761Z,19.68
2022-10-29T09:14:40.464Z,19.80
2022-10-29T09:17:21.526Z,19.83
2022-10-29T09:20:04.997Z,19.90
2022-10-29T09:22:45.731Z,19.91
2022-10-29T09:25:18.839Z,19.92
2022-10-29T09:27:59.087Z,20.15
2022-10-29T09:30:31.552Z,20.69
2022-10-29T09:33:07.202Z,21.25
2022-10-29T09:35:40.002Z,21.46
2022-10-29T09:38:16.972Z,21.63
2022-10-29T09:40:44.910Z,22.22
2022-10-29T09:43:35.766Z,22.55
2022-10-29T09:46:12.511Z,22.99
2022-10-29T09:48:46.766Z,23.46
2022-10-29T09:51:27.232Z,23.79
2022-10-29T09:53:56.776Z,24.00
2022-10-29T09:56:24.494Z,23.99
2022-10-29T09:58:57.361Z,23.74
2022-10-29T10:01:25.360Z,24.02
2022-10-29T10:03:59.325Z,24.35
2022-10-29T10:06:30.501Z,24.71
2022-10-29T10:09:04.932Z,25.25
2022-10-29T10:11:38.875Z,25.75
2022-10-29T10:14:16.385Z,26.22
2022-10-29T10:16:44.600Z,26.76
2022-10-29T10:19:24.219Z,27.05
2022-10-29T10:21:58.511Z,27.26
2022-10-29T10:24:35.063Z,27.49
2022-10-29T10:27:03.003Z,27.66
2022-10-29T10:29:31.564Z,27.68
2022-10-29T10:32:17.187Z,27.63
2022-10-29T10:34:44.853Z,27.53
2022-10-29T10:37:19.121Z,27.27
2022-10-29T10:39:53.506Z,26.96
2022-10-29T10:42:25.149Z,26.42
2022-10-29T10:44:56.293Z,26.33
2022-10-29T10:47:27.859Z,25.89
2022-10-29T10:49:57.093Z,26.00
2022-10-29T10:52:29.430Z,26.16
2022-10-29T10:55:01.657Z,26.38
2022-10-29T10:57:34.167Z,26.51
2022-10-29T11:00:06.320Z,26.67
2022-10-29T11:02:49.644Z,26.90
2022-10-29T11:05:19.457Z,27.25
2022-10-29T11:07:53.997Z,27.48
2022-10-29T11:10:35.648Z,27.66
2022-10-29T11:13:09.273Z,27.61
2022-10-29T11:15:41.877Z,27.71
2022-10-29T11:21:00.452Z,27.62
2022-10-29T11:23:36.669Z,27.66
2022-10-29T11:26:11.321Z,27.69
2022-10-29T11:28:42.776Z,27.76
2022-10-29T11:31:19.352Z,27.74
2022-10-29T11:33:53.924Z,28.04
2022-10-29T11:36:23.702Z,28.24
2022-10-29T11:38:56.463Z,28.45
2022-10-29T11:41:32.675Z,28.67
2022-10-29T11:44:00.382Z,28.81
2022-10-29T11:46:41.411Z,28.60
2022-10-29T11:49:24.241Z,28.68
2022-10-29T11:52:02.787Z,28.72
2022-10-29T11:54:47.227Z,29.09
2022-10-29T11:57:23.952Z,28.86
2022-10-29T12:00:05.250Z,28.81
2022-10-29T12:02:47.991Z,28.71
2022-10-29T12:05:23.076Z,28.66
2022-10-29T12:07:58.441Z,28.93
2022-10-29T12:10:41.963Z,28.96
2022-10-29T12:13:20.340Z,28.84
2022-10-29T12:15:54.171Z,28.96
2022-10-29T12:18:30.749Z,29.12
2022-10-29T12:21:05.886Z,29.21
2022-10-29T12:23:47.367Z,28.96
2022-10-29T12:26:21.589Z,28.71
2022-10-29T12:28:58.737Z,28.16
2022-10-29T12:31:31.891Z,28.78
2022-10-29T12:34:07.581Z,28.94
2022-10-29T12:36:42.764Z,28.84
2022-10-29T12:39:16.838Z,29.08
2022-10-29T12:41:49.960Z,28.72
2022-10-29T12:44:27.535Z,28.74
2022-10-29T12:47:02.852Z,28.57
2022-10-29T12:49:38.653Z,28.63
2022-10-29T12:52:12.795Z,28.98
2022-10-29T12:54:43.152Z,28.81
2022-10-29T12:57:29.798Z,28.98
2022-10-29T13:00:18.919Z,29.06
2022-10-29T13:02:47.337Z,28.79
2022-10-29T13:05:37.459Z,28.50
2022-10-29T13:08:36.216Z,28.63
2022-10-29T13:11:23.299Z,28.53
2022-10-29T13:14:01.397Z,28.38
2022-10-29T13:16:31.477Z,28.06
2022-10-29T13:19:09.675Z,28.00
2022-10-29T13:21:57.737Z,27.93
2022-10-29T13:24:25.627Z,27.78
2022-10-29T13:27:02.987Z,27.76
2022-10-29T13:29:51.019Z,27.88
2022-10-29T13:32:39.148Z,28.34
2022-10-29T13:35:40.564Z,28.85
2022-10-29T13:38:17.035Z,30.30
2022-10-29T13:41:11.784Z,31.18
2022-10-29T13:43:41.325Z,31.11
2022-10-29T13:46:47.237Z,30.82
2022-10-29T13:49:22.100Z,30.35
2022-10-29T13:51:58.243Z,29.94
2022-10-29T13:54:41.974Z,29.27
2022-10-29T13:57:18.808Z,29.56
2022-10-29T13:59:51.779Z,30.07
2022-10-29T14:02:46.635Z,30.25
2022-10-29T14:05:20.285Z,29.99
2022-10-29T14:07:55.865Z,29.73
2022-10-29T14:10:26.450Z,29.97
2022-10-29T14:13:01.284Z,29.98
2022-10-29T14:15:29.054Z,29.69
2022-10-29T14:17:57.327Z,29.02
2022-10-29T14:20:29.287Z,28.12
2022-10-29T14:22:57.331Z,27.18
2022-10-29T14:25:31.220Z,26.39
2022-10-29T14:28:20.577Z,25.72
2022-10-29T14:30:49.751Z,25.31
2022-10-29T14:33:24.645Z,24.94
2022-10-29T14:35:56.936Z,24.57
2022-10-29T14:38:31.778Z,24.35
2022-10-29T14:40:59.532Z,24.07
2022-10-29T14:43:29.536Z,23.77
2022-10-29T14:46:11.895Z,23.45
2022-10-29T14:48:41.784Z,23.25
2022-10-29T14:51:20.032Z,23.12
2022-10-29T14:53:55.122Z,22.92
2022-10-29T14:56:30.948Z,22.71
2022-10-29T14:58:58.931Z,22.54
2022-10-29T15:01:26.782Z,22.44
2022-10-29T15:03:59.446Z,22.32
2022-10-29T15:06:30.398Z,22.13
2022-10-29T15:09:00.701Z,21.99
2022-10-29T15:11:39.967Z,21.84
2022-10-29T15:16:55.581Z,21.57
2022-10-29T15:19:23.613Z,21.54
2022-10-29T15:21:52.736Z,21.36
2022-10-29T15:24:24.077Z,21.17
2022-10-29T15:26:55.794Z,21.02
2022-10-29T15:29:33.359Z,20.87
2022-10-29T15:32:01.864Z,20.57
2022-10-29T15:34:33.357Z,20.36
2022-10-29T15:37:16.143Z,20.14
2022-10-29T15:40:01.356Z,19.91
2022-10-29T15:42:32.088Z,19.70
2022-10-29T15:45:18.800Z,19.42
2022-10-29T15:47:49.290Z,19.15
2022-10-29T15:50:19.594Z,18.88
2022-10-29T15:52:53.600Z,18.66
2022-10-29T15:55:26.927Z,18.52
2022-10-29T15:57:57.579Z,18.33
2022-10-29T16:00:25.508Z,18.17
2022-10-29T16:02:57.962Z,17.91
2022-10-29T16:05:25.903Z,17.74
2022-10-29T16:07:55.556Z,17.53
2022-10-29T16:10:23.211Z,17.38
2022-10-29T16:12:51.086Z,17.31
2022-10-29T16:15:20.589Z,17.27
2022-10-29T16:17:48.433Z,17.20
2022-10-29T16:20:18.335Z,17.07
2022-10-29T16:22:47.500Z,16.96
2022-10-29T16:25:25.588Z,16.84
2022-10-29T16:27:53.789Z,16.83
2022-10-29T16:30:23.056Z,16.73
2022-10-29T16:32:52.388Z,16.74
2022-10-29T16:35:23.700Z,16.79
2022-10-29T16:37:52.791Z,16.85
2022-10-29T16:40:21.621Z,16.73
2022-10-29T16:42:50.688Z,16.59
2022-10-29T16:45:20.068Z,16.51
2022-10-29T16:47:47.816Z,16.40
2022-10-29T16:50:19.392Z,16.40
2022-10-29T16:52:47.304Z,16.31
2022-10-29T16:55:16.038Z,16.31
2022-10-29T16:57:43.700Z,16.27
2022-10-29T17:00:14.130Z,16.21
2022-10-29T17:02:44.554Z,16.17
2022-10-29T17:05:12.961Z,16.21
2022-10-29T17:07:40.716Z,16.25
2022-10-29T17:10:09.535Z,16.24
2022-10-29T17:12:38.087Z,16.24
2022-10-29T17:15:06.609Z,16.19
2022-10-29T17:17:35.637Z,16.11
2022-10-29T17:20:03.259Z,16.05
2022-10-29T17:22:30.895Z,15.90
2022-10-29T17:24:58.553Z,15.77
2022-10-29T17:27:26.249Z,15.64
2022-10-29T17:29:53.866Z,15.52
2022-10-29T17:32:21.552Z,15.30
2022-10-29T17:34:50.632Z,15.16
2022-10-29T17:37:18.282Z,15.02
2022-10-29T17:39:45.957Z,14.89
2022-10-29T17:42:13.574Z,14.75
2022-10-29T17:44:41.222Z,14.62
2022-10-29T17:47:08.882Z,14.48
2022-10-29T17:49:36.519Z,14.38
2022-10-29T17:52:06.457Z,14.35
2022-10-29T17:54:36.227Z,14.32
2022-10-29T17:57:03.954Z,14.27
2022-10-29T17:59:31.625Z,14.24
2022-10-29T18:01:59.361Z,14.13
2022-10-29T18:04:27.137Z,14.06
2022-10-29T18:06:57.141Z,14.01
2022-10-29T18:09:26.632Z,13.93
2022-10-29T18:11:54.261Z,13.87
2022-10-29T18:14:23.819Z,13.77
2022-10-29T18:16:51.440Z,13.67
2022-10-29T18:19:19.099Z,13.64
2022-10-29T18:21:46.819Z,13.57
2022-10-29T18:24:14.508Z,13.51
2022-10-29T18:26:43.566Z,13.49
2022-10-29T18:29:13.065Z,13.41
2022-10-29T18:31:44.784Z,13.35
2022-10-29T18:34:15.016Z,13.29
2022-10-29T18:36:42.949Z,13.26
2022-10-29T18:39:10.645Z,13.25
2022-10-29T18:41:40.415Z,13.25
2022-10-29T18:44:09.455Z,13.20
2022-10-29T18:46:37.156Z,13.12
2022-10-29T18:49:04.803Z,13.07
2022-10-29T18:51:33.508Z,13.05
2022-10-29T18:54:01.552Z,12.99
2022-10-29T18:56:30.808Z,13.00
2022-10-29T18:58:59.850Z,12.90
2022-10-29T19:01:31.356Z,12.85
2022-10-29T19:04:01.688Z,12.74
2022-10-29T19:06:31.108Z,12.67
2022-10-29T19:09:01.056Z,12.59
2022-10-29T19:11:29.667Z,12.58
2022-10-29T19:13:59.189Z,12.61
2022-10-29T19:16:28.991Z,12.59
2022-10-29T19:18:57.950Z,12.57
2022-10-29T19:21:26.701Z,12.50
2022-10-29T19:23:56.198Z,12.45
2022-10-29T19:26:26.648Z,12.43
2022-10-29T19:28:55.017Z,12.41
2022-10-29T19:31:26.268Z,12.37
2022-10-29T19:33:57.221Z,12.32
2022-10-29T19:36:26.158Z,12.30
2022-10-29T19:38:53.888Z,12.27
2022-10-29T19:41:21.597Z,12.27
2022-10-29T19:43:51.253Z,12.23
2022-10-29T19:46:23.995Z,12.20
2022-10-29T19:48:52.813Z,12.05
2022-10-29T19:51:24.314Z,12.04
2022-10-29T19:53:52.326Z,11.96
2022-10-29T19:56:20.816Z,11.93
2022-10-29T19:58:48.465Z,11.90
2022-10-29T20:01:18.660Z,11.85
2022-10-29T20:03:47.612Z,11.78
2022-10-29T20:06:16.406Z,11.77
2022-10-29T20:08:45.397Z,11.75
2022-10-29T20:11:13.044Z,11.71
2022-10-29T20:13:40.885Z,11.73
2022-10-29T20:16:10.108Z,11.70
2022-10-29T20:18:39.680Z,11.69
2022-10-29T20:21:07.735Z,11.59
2022-10-29T20:23:36.006Z,11.59
2022-10-29T20:26:05.197Z,11.47
2022-10-29T20:28:32.846Z,11.41
2022-10-29T20:31:14.833Z,11.35
2022-10-29T20:33:49.509Z,11.27
2022-10-29T20:36:17.439Z,11.27
2022-10-29T20:38:45.102Z,11.18
2022-10-29T20:41:14.082Z,11.07
2022-10-29T20:43:41.694Z,11.08
2022-10-29T20:46:11.964Z,10.98
2022-10-29T20:48:39.669Z,11.01
2022-10-29T20:51:07.602Z,10.98
2022-10-29T20:53:35.240Z,10.90
2022-10-29T20:56:02.916Z,10.82
2022-10-29T20:58:31.895Z,10.79
2022-10-29T21:01:05.988Z,10.78
2022-10-29T21:03:36.308Z,10.77
2022-10-29T21:06:04.516Z,10.70
2022-10-29T21:08:32.584Z,10.73
2022-10-29T21:11:01.103Z,10.66
2022-10-29T21:13:29.042Z,10.64
2022-10-29T21:16:05.770Z,10.59
2022-10-29T21:18:38.908Z,10.55
2022-10-29T21:21:07.194Z,10.52
2022-10-29T21:23:37.106Z,10.47
2022-10-29T21:26:05.737Z,10.49
2022-10-29T21:28:35.279Z,10.44
2022-10-29T21:31:06.391Z,10.41
2022-10-29T21:33:34.035Z,10.38
2022-10-29T21:36:02.571Z,10.33
2022-10-29T21:38:31.041Z,10.29
2022-10-29T21:41:01.970Z,10.24
2022-10-29T21:43:29.760Z,10.21
2022-10-29T21:45:57.680Z,10.15
2022-10-29T21:48:27.942Z,10.10
2022-10-29T21:51:01.772Z,10.12
2022-10-29T21:53:32.811Z,10.03
2022-10-29T21:56:02.502Z,9.99
2022-10-29T21:58:30.993Z,9.92
2022-10-29T22:01:06.562Z,9.94
2022-10-29T22:03:36.864Z,9.93
2022-10-29T22:06:05.921Z,9.85
2022-10-29T22:08:33.754Z,9.82
2022-10-29T22:11:01.787Z,9.78
2022-10-29T22:13:30.381Z,9.77
2022-10-29T22:15:58.662Z,9.77
2022-10-29T22:18:27.271Z,9.73
2022-10-29T22:21:07.870Z,9.70
2022-10-29T22:23:37.874Z,9.67
2022-10-29T22:26:05.729Z,9.66
2022-10-29T22:28:33.364Z,9.63
2022-10-29T22:31:02.211Z,9.59
2022-10-29T22:33:30.295Z,9.56
2022-10-29T22:36:06.904Z,9.52
2022-10-29T22:38:36.775Z,9.48
2022-10-29T22:41:06.604Z,9.41
2022-10-29T22:43:34.277Z,9.37
2022-10-29T22:46:01.979Z,9.33
2022-10-29T22:48:29.750Z,9.34
2022-10-29T22:51:03.042Z,9.30
2022-10-29T22:53:32.594Z,9.31
2022-10-29T22:56:03.232Z,9.37
2022-10-29T23:04:38.275Z,9.24
2022-10-29T23:07:07.053Z,9.22
2022-10-29T23:09:34.692Z,9.29
2022-10-29T23:12:02.338Z,9.29
2022-10-29T23:14:32.616Z,9.30
2022-10-29T23:17:00.252Z,9.27
2022-10-29T23:19:27.894Z,9.22
2022-10-29T23:21:57.539Z,9.14
2022-10-29T23:24:25.223Z,9.08
2022-10-29T23:26:52.875Z,8.98
2022-10-29T23:29:20.570Z,8.92
2022-10-29T23:31:51.461Z,8.87
2022-10-29T23:34:22.581Z,8.81
2022-10-29T23:36:50.222Z,8.77
2022-10-29T23:39:19.224Z,8.77
2022-10-29T23:41:46.862Z,8.77
2022-10-29T23:44:14.483Z,8.71
2022-10-29T23:46:42.192Z,8.72
2022-10-29T23:49:10.513Z,8.75
2022-10-29T23:51:38.134Z,8.76
2022-10-29T23:54:06.040Z,8.78
2022-10-29T23:56:35.029Z,8.71
2022-10-29T23:59:02.683Z,8.67
